Aviation Digital Data Service (ADDS)

Output produced by METARs form (2333 UTC 25 October 2014)
found at http://aviationweather.gov/adds/metars/
 
KHPN 251931Z 2520/2618 29012G17KT P6SM SCT050 
     FM252300 25008KT P6SM BKN050 
     FM260900 29010G17KT P6SM SCT050 
     FM261500 30015G26KT P6SM SCT050 AMD NOT SKED